sensor_id;sensor_type;location;lat;lon;timestamp;P1;durP1;ratioP1;P2;durP2;ratioP2
23179;SDS011;11758;45.756;11.432;2023-03-16T00:00:01;0.43;;;0.43;;
23179;SDS011;11758;45.756;11.432;2023-03-16T00:02:28;0.30;;;0.30;;
23179;SDS011;11758;45.756;11.432;2023-03-16T00:04:54;0.40;;;0.40;;
23179;SDS011;11758;45.756;11.432;2023-03-16T00:07:20;0.60;;;0.60;;
23179;SDS011;11758;45.756;11.432;2023-03-16T00:09:46;0.35;;;0.35;;
23179;SDS011;11758;45.756;11.432;2023-03-16T00:12:14;0.43;;;0.30;;
23179;SDS011;11758;45.756;11.432;2023-03-16T00:14:44;1.63;;;0.50;;
23179;SDS011;11758;45.756;11.432;2023-03-16T00:23:12;0.40;;;0.40;;
23179;SDS011;11758;45.756;11.432;2023-03-16T00:25:38;0.40;;;0.40;;
23179;SDS011;11758;45.756;11.432;2023-03-16T00:28:06;0.40;;;0.40;;
23179;SDS011;11758;45.756;11.432;2023-03-16T00:30:32;0.50;;;0.50;;
23179;SDS011;11758;45.756;11.432;2023-03-16T00:32:58;0.57;;;0.47;;
23179;SDS011;11758;45.756;11.432;2023-03-16T00:35:26;0.50;;;0.50;;
23179;SDS011;11758;45.756;11.432;2023-03-16T00:37:52;0.73;;;0.70;;
23179;SDS011;11758;45.756;11.432;2023-03-16T00:40:21;0.30;;;0.30;;
23179;SDS011;11758;45.756;11.432;2023-03-16T00:42:48;0.50;;;0.50;;
23179;SDS011;11758;45.756;11.432;2023-03-16T00:45:15;0.60;;;0.60;;
23179;SDS011;11758;45.756;11.432;2023-03-16T00:47:42;0.45;;;0.45;;
23179;SDS011;11758;45.756;11.432;2023-03-16T00:50:09;1.90;;;0.60;;
23179;SDS011;11758;45.756;11.432;2023-03-16T00:52:37;0.35;;;0.35;;
23179;SDS011;11758;45.756;11.432;2023-03-16T00:55:03;0.68;;;0.63;;
23179;SDS011;11758;45.756;11.432;2023-03-16T00:57:29;4.55;;;0.60;;
23179;SDS011;11758;45.756;11.432;2023-03-16T00:59:55;2.83;;;0.50;;
23179;SDS011;11758;45.756;11.432;2023-03-16T01:02:22;0.50;;;0.50;;
23179;SDS011;11758;45.756;11.432;2023-03-16T01:04:49;0.52;;;0.52;;
23179;SDS011;11758;45.756;11.432;2023-03-16T01:07:15;0.50;;;0.50;;
23179;SDS011;11758;45.756;11.432;2023-03-16T01:09:42;1.45;;;0.60;;
23179;SDS011;11758;45.756;11.432;2023-03-16T01:12:09;0.65;;;0.65;;
23179;SDS011;11758;45.756;11.432;2023-03-16T01:14:36;0.90;;;0.50;;
23179;SDS011;11758;45.756;11.432;2023-03-16T01:17:03;0.47;;;0.47;;
23179;SDS011;11758;45.756;11.432;2023-03-16T01:19:32;1.20;;;1.10;;
23179;SDS011;11758;45.756;11.432;2023-03-16T01:22:00;0.65;;;0.65;;
23179;SDS011;11758;45.756;11.432;2023-03-16T01:24:26;0.70;;;0.70;;
23179;SDS011;11758;45.756;11.432;2023-03-16T01:26:52;1.30;;;1.05;;
23179;SDS011;11758;45.756;11.432;2023-03-16T01:29:18;1.55;;;1.00;;
23179;SDS011;11758;45.756;11.432;2023-03-16T01:31:44;0.90;;;0.90;;
23179;SDS011;11758;45.756;11.432;2023-03-16T01:34:11;0.90;;;0.90;;
23179;SDS011;11758;45.756;11.432;2023-03-16T01:36:42;2.40;;;0.98;;
23179;SDS011;11758;45.756;11.432;2023-03-16T01:39:09;0.65;;;0.65;;
23179;SDS011;11758;45.756;11.432;2023-03-16T01:41:35;0.85;;;0.80;;
23179;SDS011;11758;45.756;11.432;2023-03-16T01:44:01;0.95;;;0.60;;
23179;SDS011;11758;45.756;11.432;2023-03-16T01:46:28;0.90;;;0.60;;
23179;SDS011;11758;45.756;11.432;2023-03-16T01:49:08;0.30;;;0.30;;
23179;SDS011;11758;45.756;11.432;2023-03-16T01:51:43;0.80;;;0.80;;
23179;SDS011;11758;45.756;11.432;2023-03-16T01:59:15;0.73;;;0.60;;
23179;SDS011;11758;45.756;11.432;2023-03-16T02:01:43;0.50;;;0.50;;
23179;SDS011;11758;45.756;11.432;2023-03-16T02:04:14;0.50;;;0.50;;
23179;SDS011;11758;45.756;11.432;2023-03-16T02:06:41;0.52;;;0.52;;
23179;SDS011;11758;45.756;11.432;2023-03-16T02:09:08;0.57;;;0.57;;
23179;SDS011;11758;45.756;11.432;2023-03-16T02:11:35;0.50;;;0.50;;
23179;SDS011;11758;45.756;11.432;2023-03-16T02:14:02;0.55;;;0.55;;
23179;SDS011;11758;45.756;11.432;2023-03-16T02:16:31;0.50;;;0.50;;
23179;SDS011;11758;45.756;11.432;2023-03-16T02:18:57;0.57;;;0.57;;
23179;SDS011;11758;45.756;11.432;2023-03-16T02:23:57;0.70;;;0.70;;
23179;SDS011;11758;45.756;11.432;2023-03-16T02:26:26;0.77;;;0.60;;
23179;SDS011;11758;45.756;11.432;2023-03-16T02:31:20;1.00;;;0.70;;
23179;SDS011;11758;45.756;11.432;2023-03-16T02:33:46;0.73;;;0.70;;
23179;SDS011;11758;45.756;11.432;2023-03-16T02:36:14;0.50;;;0.50;;
23179;SDS011;11758;45.756;11.432;2023-03-16T02:38:40;0.60;;;0.60;;
23179;SDS011;11758;45.756;11.432;2023-03-16T02:41:10;0.35;;;0.35;;
23179;SDS011;11758;45.756;11.432;2023-03-16T02:43:37;0.43;;;0.43;;
23179;SDS011;11758;45.756;11.432;2023-03-16T02:46:05;0.50;;;0.50;;
23179;SDS011;11758;45.756;11.432;2023-03-16T02:48:44;0.50;;;0.50;;
23179;SDS011;11758;45.756;11.432;2023-03-16T02:51:12;0.50;;;0.50;;
23179;SDS011;11758;45.756;11.432;2023-03-16T02:53:38;0.40;;;0.40;;
23179;SDS011;11758;45.756;11.432;2023-03-16T02:56:05;0.50;;;0.50;;
23179;SDS011;11758;45.756;11.432;2023-03-16T02:58:31;3.30;;;0.60;;
23179;SDS011;11758;45.756;11.432;2023-03-16T03:00:57;0.30;;;0.30;;
23179;SDS011;11758;45.756;11.432;2023-03-16T03:03:23;0.90;;;0.65;;
23179;SDS011;11758;45.756;11.432;2023-03-16T03:05:49;0.77;;;0.77;;
23179;SDS011;11758;45.756;11.432;2023-03-16T03:08:15;0.47;;;0.47;;
23179;SDS011;11758;45.756;11.432;2023-03-16T03:10:44;0.60;;;0.60;;
23179;SDS011;11758;45.756;11.432;2023-03-16T03:13:11;0.52;;;0.43;;
23179;SDS011;11758;45.756;11.432;2023-03-16T03:15:37;1.45;;;0.50;;
23179;SDS011;11758;45.756;11.432;2023-03-16T03:18:04;0.70;;;0.70;;
23179;SDS011;11758;45.756;11.432;2023-03-16T03:20:30;0.60;;;0.60;;
23179;SDS011;11758;45.756;11.432;2023-03-16T03:22:56;0.80;;;0.80;;
23179;SDS011;11758;45.756;11.432;2023-03-16T03:25:22;0.70;;;0.70;;
23179;SDS011;11758;45.756;11.432;2023-03-16T03:27:49;0.80;;;0.80;;
23179;SDS011;11758;45.756;11.432;2023-03-16T03:30:17;0.80;;;0.80;;
23179;SDS011;11758;45.756;11.432;2023-03-16T03:32:43;0.50;;;0.50;;
23179;SDS011;11758;45.756;11.432;2023-03-16T03:35:10;0.70;;;0.70;;
23179;SDS011;11758;45.756;11.432;2023-03-16T03:37:37;0.63;;;0.63;;
23179;SDS011;11758;45.756;11.432;2023-03-16T03:40:04;0.60;;;0.60;;
23179;SDS011;11758;45.756;11.432;2023-03-16T03:42:30;0.60;;;0.60;;
23179;SDS011;11758;45.756;11.432;2023-03-16T03:44:56;0.70;;;0.70;;
23179;SDS011;11758;45.756;11.432;2023-03-16T03:47:22;0.60;;;0.60;;
23179;SDS011;11758;45.756;11.432;2023-03-16T03:49:48;0.57;;;0.57;;
23179;SDS011;11758;45.756;11.432;2023-03-16T03:52:15;4.28;;;1.05;;
23179;SDS011;11758;45.756;11.432;2023-03-16T03:54:41;0.75;;;0.70;;
23179;SDS011;11758;45.756;11.432;2023-03-16T03:57:07;0.55;;;0.55;;
23179;SDS011;11758;45.756;11.432;2023-03-16T03:59:33;0.85;;;0.85;;
23179;SDS011;11758;45.756;11.432;2023-03-16T04:02:04;0.77;;;0.73;;
23179;SDS011;11758;45.756;11.432;2023-03-16T04:04:30;0.55;;;0.55;;
23179;SDS011;11758;45.756;11.432;2023-03-16T04:06:57;0.68;;;0.68;;
23179;SDS011;11758;45.756;11.432;2023-03-16T04:09:24;1.50;;;0.80;;
23179;SDS011;11758;45.756;11.432;2023-03-16T04:11:50;0.70;;;0.70;;
23179;SDS011;11758;45.756;11.432;2023-03-16T04:14:16;2.72;;;0.70;;
23179;SDS011;11758;45.756;11.432;2023-03-16T04:16:42;1.85;;;0.80;;
23179;SDS011;11758;45.756;11.432;2023-03-16T04:19:09;0.70;;;0.70;;
23179;SDS011;11758;45.756;11.432;2023-03-16T04:21:35;0.70;;;0.70;;
23179;SDS011;11758;45.756;11.432;2023-03-16T04:24:02;0.65;;;0.65;;
23179;SDS011;11758;45.756;11.432;2023-03-16T04:26:29;0.80;;;0.80;;
23179;SDS011;11758;45.756;11.432;2023-03-16T04:28:56;2.67;;;0.80;;
23179;SDS011;11758;45.756;11.432;2023-03-16T04:31:22;1.05;;;0.80;;
23179;SDS011;11758;45.756;11.432;2023-03-16T04:33:48;1.00;;;1.00;;
23179;SDS011;11758;45.756;11.432;2023-03-16T04:36:18;1.60;;;1.10;;
23179;SDS011;11758;45.756;11.432;2023-03-16T04:38:48;0.98;;;0.98;;
23179;SDS011;11758;45.756;11.432;2023-03-16T04:41:15;0.95;;;0.95;;
23179;SDS011;11758;45.756;11.432;2023-03-16T04:43:42;1.20;;;1.20;;
23179;SDS011;11758;45.756;11.432;2023-03-16T04:46:08;1.20;;;1.20;;
23179;SDS011;11758;45.756;11.432;2023-03-16T04:48:34;1.25;;;1.25;;
23179;SDS011;11758;45.756;11.432;2023-03-16T04:51:01;1.00;;;1.00;;
23179;SDS011;11758;45.756;11.432;2023-03-16T04:53:30;1.10;;;1.10;;
23179;SDS011;11758;45.756;11.432;2023-03-16T04:55:56;1.10;;;1.10;;
23179;SDS011;11758;45.756;11.432;2023-03-16T04:58:23;1.20;;;1.20;;
23179;SDS011;11758;45.756;11.432;2023-03-16T05:00:52;1.40;;;1.30;;
23179;SDS011;11758;45.756;11.432;2023-03-16T05:03:21;1.38;;;1.27;;
23179;SDS011;11758;45.756;11.432;2023-03-16T05:05:48;1.30;;;1.30;;
23179;SDS011;11758;45.756;11.432;2023-03-16T05:08:15;1.33;;;1.30;;
23179;SDS011;11758;45.756;11.432;2023-03-16T05:10:41;2.47;;;1.40;;
23179;SDS011;11758;45.756;11.432;2023-03-16T05:13:08;1.48;;;1.40;;
23179;SDS011;11758;45.756;11.432;2023-03-16T05:15:34;3.42;;;1.35;;
23179;SDS011;11758;45.756;11.432;2023-03-16T05:18:00;1.63;;;1.55;;
23179;SDS011;11758;45.756;11.432;2023-03-16T05:20:26;1.73;;;1.73;;
23179;SDS011;11758;45.756;11.432;2023-03-16T05:22:52;1.40;;;1.40;;
23179;SDS011;11758;45.756;11.432;2023-03-16T05:25:19;1.38;;;1.27;;
23179;SDS011;11758;45.756;11.432;2023-03-16T05:27:49;2.70;;;1.40;;
23179;SDS011;11758;45.756;11.432;2023-03-16T05:30:16;2.58;;;1.40;;
23179;SDS011;11758;45.756;11.432;2023-03-16T05:32:43;1.20;;;1.20;;
23179;SDS011;11758;45.756;11.432;2023-03-16T05:35:09;2.55;;;1.38;;
23179;SDS011;11758;45.756;11.432;2023-03-16T05:37:37;1.17;;;1.17;;
23179;SDS011;11758;45.756;11.432;2023-03-16T05:40:05;1.23;;;1.20;;
23179;SDS011;11758;45.756;11.432;2023-03-16T05:42:44;1.33;;;1.33;;
23179;SDS011;11758;45.756;11.432;2023-03-16T05:45:11;1.70;;;1.40;;
23179;SDS011;11758;45.756;11.432;2023-03-16T05:47:37;1.20;;;1.20;;
23179;SDS011;11758;45.756;11.432;2023-03-16T05:50:04;1.08;;;1.08;;
23179;SDS011;11758;45.756;11.432;2023-03-16T05:52:30;1.25;;;1.15;;
23179;SDS011;11758;45.756;11.432;2023-03-16T05:54:57;1.63;;;1.15;;
23179;SDS011;11758;45.756;11.432;2023-03-16T05:57:23;1.48;;;1.35;;
23179;SDS011;11758;45.756;11.432;2023-03-16T05:59:50;1.60;;;1.60;;
23179;SDS011;11758;45.756;11.432;2023-03-16T06:02:16;1.33;;;1.33;;
23179;SDS011;11758;45.756;11.432;2023-03-16T06:04:43;1.83;;;1.70;;
23179;SDS011;11758;45.756;11.432;2023-03-16T06:07:09;1.70;;;1.30;;
23179;SDS011;11758;45.756;11.432;2023-03-16T06:09:35;1.20;;;1.20;;
23179;SDS011;11758;45.756;11.432;2023-03-16T06:12:01;0.90;;;0.90;;
23179;SDS011;11758;45.756;11.432;2023-03-16T06:14:28;1.15;;;1.15;;
23179;SDS011;11758;45.756;11.432;2023-03-16T06:16:54;3.60;;;1.23;;
23179;SDS011;11758;45.756;11.432;2023-03-16T06:19:20;0.90;;;0.90;;
23179;SDS011;11758;45.756;11.432;2023-03-16T06:21:46;0.95;;;0.85;;
23179;SDS011;11758;45.756;11.432;2023-03-16T06:24:12;1.10;;;1.10;;
23179;SDS011;11758;45.756;11.432;2023-03-16T06:26:39;1.65;;;1.58;;
23179;SDS011;11758;45.756;11.432;2023-03-16T06:29:05;1.00;;;1.00;;
23179;SDS011;11758;45.756;11.432;2023-03-16T06:31:31;0.90;;;0.90;;
23179;SDS011;11758;45.756;11.432;2023-03-16T06:33:58;0.57;;;0.57;;
23179;SDS011;11758;45.756;11.432;2023-03-16T06:36:25;2.08;;;0.80;;
23179;SDS011;11758;45.756;11.432;2023-03-16T06:38:51;2.05;;;0.63;;
23179;SDS011;11758;45.756;11.432;2023-03-16T06:41:17;1.00;;;1.00;;
23179;SDS011;11758;45.756;11.432;2023-03-16T06:43:43;1.70;;;1.60;;
23179;SDS011;11758;45.756;11.432;2023-03-16T06:46:09;1.70;;;1.70;;
23179;SDS011;11758;45.756;11.432;2023-03-16T06:48:35;1.90;;;1.80;;
23179;SDS011;11758;45.756;11.432;2023-03-16T06:51:02;1.73;;;1.63;;
23179;SDS011;11758;45.756;11.432;2023-03-16T06:53:28;5.75;;;2.45;;
23179;SDS011;11758;45.756;11.432;2023-03-16T06:55:54;3.70;;;2.70;;
23179;SDS011;11758;45.756;11.432;2023-03-16T06:58:21;4.30;;;3.75;;
23179;SDS011;11758;45.756;11.432;2023-03-16T07:00:47;4.18;;;3.88;;
23179;SDS011;11758;45.756;11.432;2023-03-16T07:03:13;6.32;;;3.38;;
23179;SDS011;11758;45.756;11.432;2023-03-16T07:05:42;6.65;;;3.25;;
23179;SDS011;11758;45.756;11.432;2023-03-16T07:08:09;3.60;;;3.28;;
23179;SDS011;11758;45.756;11.432;2023-03-16T07:10:36;4.65;;;4.20;;
23179;SDS011;11758;45.756;11.432;2023-03-16T07:13:02;4.30;;;2.35;;
23179;SDS011;11758;45.756;11.432;2023-03-16T07:15:28;2.20;;;2.00;;
23179;SDS011;11758;45.756;11.432;2023-03-16T07:17:54;3.75;;;2.22;;
23179;SDS011;11758;45.756;11.432;2023-03-16T07:20:20;2.65;;;2.45;;
23179;SDS011;11758;45.756;11.432;2023-03-16T07:22:46;3.83;;;2.00;;
23179;SDS011;11758;45.756;11.432;2023-03-16T07:25:13;2.20;;;2.10;;
23179;SDS011;11758;45.756;11.432;2023-03-16T07:27:39;2.55;;;2.45;;
23179;SDS011;11758;45.756;11.432;2023-03-16T07:30:08;1.75;;;1.65;;
23179;SDS011;11758;45.756;11.432;2023-03-16T07:32:42;2.28;;;2.17;;
23179;SDS011;11758;45.756;11.432;2023-03-16T07:35:12;2.45;;;2.25;;
23179;SDS011;11758;45.756;11.432;2023-03-16T07:37:38;1.88;;;1.55;;
23179;SDS011;11758;45.756;11.432;2023-03-16T07:40:06;2.28;;;2.00;;
23179;SDS011;11758;45.756;11.432;2023-03-16T07:42:33;1.88;;;1.63;;
23179;SDS011;11758;45.756;11.432;2023-03-16T07:44:59;2.00;;;1.50;;
23179;SDS011;11758;45.756;11.432;2023-03-16T07:47:25;1.80;;;1.70;;
23179;SDS011;11758;45.756;11.432;2023-03-16T07:49:52;1.60;;;1.50;;
23179;SDS011;11758;45.756;11.432;2023-03-16T07:52:18;1.42;;;1.42;;
23179;SDS011;11758;45.756;11.432;2023-03-16T07:54:44;4.72;;;1.25;;
23179;SDS011;11758;45.756;11.432;2023-03-16T07:57:10;3.30;;;1.25;;
23179;SDS011;11758;45.756;11.432;2023-03-16T07:59:37;1.13;;;1.10;;
23179;SDS011;11758;45.756;11.432;2023-03-16T08:02:03;2.15;;;1.08;;
23179;SDS011;11758;45.756;11.432;2023-03-16T08:04:29;1.25;;;1.10;;
23179;SDS011;11758;45.756;11.432;2023-03-16T08:06:55;2.72;;;2.53;;
23179;SDS011;11758;45.756;11.432;2023-03-16T08:09:25;1.13;;;1.13;;
23179;SDS011;11758;45.756;11.432;2023-03-16T08:11:51;1.30;;;1.20;;
23179;SDS011;11758;45.756;11.432;2023-03-16T08:14:17;5.05;;;1.35;;
23179;SDS011;11758;45.756;11.432;2023-03-16T08:16:43;1.70;;;1.60;;
23179;SDS011;11758;45.756;11.432;2023-03-16T08:19:09;1.30;;;1.30;;
23179;SDS011;11758;45.756;11.432;2023-03-16T08:21:36;1.98;;;1.27;;
23179;SDS011;11758;45.756;11.432;2023-03-16T08:24:02;1.38;;;1.38;;
23179;SDS011;11758;45.756;11.432;2023-03-16T08:26:28;2.30;;;1.50;;
23179;SDS011;11758;45.756;11.432;2023-03-16T08:28:54;1.67;;;1.40;;
23179;SDS011;11758;45.756;11.432;2023-03-16T08:31:20;1.58;;;1.20;;
23179;SDS011;11758;45.756;11.432;2023-03-16T08:33:49;2.95;;;1.50;;
23179;SDS011;11758;45.756;11.432;2023-03-16T08:36:16;1.40;;;1.27;;
23179;SDS011;11758;45.756;11.432;2023-03-16T08:38:42;1.58;;;1.48;;
23179;SDS011;11758;45.756;11.432;2023-03-16T08:41:10;1.50;;;1.50;;
23179;SDS011;11758;45.756;11.432;2023-03-16T08:43:36;1.42;;;1.33;;
23179;SDS011;11758;45.756;11.432;2023-03-16T08:46:03;2.40;;;1.50;;
23179;SDS011;11758;45.756;11.432;2023-03-16T08:48:30;1.20;;;1.20;;
23179;SDS011;11758;45.756;11.432;2023-03-16T08:51:03;1.30;;;1.30;;
23179;SDS011;11758;45.756;11.432;2023-03-16T08:53:33;1.58;;;1.30;;
23179;SDS011;11758;45.756;11.432;2023-03-16T08:56:07;1.42;;;1.33;;
23179;SDS011;11758;45.756;11.432;2023-03-16T08:58:34;1.70;;;1.60;;
23179;SDS011;11758;45.756;11.432;2023-03-16T09:01:01;2.13;;;1.50;;
23179;SDS011;11758;45.756;11.432;2023-03-16T09:03:29;2.63;;;1.48;;
23179;SDS011;11758;45.756;11.432;2023-03-16T09:06:03;1.88;;;1.73;;
23179;SDS011;11758;45.756;11.432;2023-03-16T09:08:29;1.98;;;1.88;;
23179;SDS011;11758;45.756;11.432;2023-03-16T09:10:59;3.50;;;2.00;;
23179;SDS011;11758;45.756;11.432;2023-03-16T09:13:26;2.22;;;1.95;;
23179;SDS011;11758;45.756;11.432;2023-03-16T09:15:53;3.35;;;1.92;;
23179;SDS011;11758;45.756;11.432;2023-03-16T09:18:19;4.25;;;2.20;;
23179;SDS011;11758;45.756;11.432;2023-03-16T09:20:46;4.28;;;1.90;;
23179;SDS011;11758;45.756;11.432;2023-03-16T09:23:13;2.85;;;2.15;;
23179;SDS011;11758;45.756;11.432;2023-03-16T09:25:39;4.13;;;2.10;;
23179;SDS011;11758;45.756;11.432;2023-03-16T09:28:05;1.92;;;1.90;;
23179;SDS011;11758;45.756;11.432;2023-03-16T09:30:31;2.03;;;1.92;;
23179;SDS011;11758;45.756;11.432;2023-03-16T09:32:58;2.13;;;1.95;;
23179;SDS011;11758;45.756;11.432;2023-03-16T09:35:25;3.20;;;2.00;;
23179;SDS011;11758;45.756;11.432;2023-03-16T09:37:51;2.60;;;1.95;;
23179;SDS011;11758;45.756;11.432;2023-03-16T09:40:19;2.13;;;2.00;;
23179;SDS011;11758;45.756;11.432;2023-03-16T09:42:59;2.50;;;2.00;;
23179;SDS011;11758;45.756;11.432;2023-03-16T09:48:09;3.22;;;2.08;;
23179;SDS011;11758;45.756;11.432;2023-03-16T09:50:37;3.83;;;2.00;;
23179;SDS011;11758;45.756;11.432;2023-03-16T09:55:50;2.30;;;2.10;;
23179;SDS011;11758;45.756;11.432;2023-03-16T09:58:20;2.25;;;2.00;;
23179;SDS011;11758;45.756;11.432;2023-03-16T10:00:53;2.83;;;2.30;;
23179;SDS011;11758;45.756;11.432;2023-03-16T10:06:03;2.42;;;2.08;;
23179;SDS011;11758;45.756;11.432;2023-03-16T10:08:36;6.45;;;2.47;;
23179;SDS011;11758;45.756;11.432;2023-03-16T10:16:11;2.95;;;2.10;;
23179;SDS011;11758;45.756;11.432;2023-03-16T10:18:40;2.80;;;2.60;;
23179;SDS011;11758;45.756;11.432;2023-03-16T10:21:25;2.53;;;2.33;;
23179;SDS011;11758;45.756;11.432;2023-03-16T10:23:52;6.20;;;2.38;;
23179;SDS011;11758;45.756;11.432;2023-03-16T10:26:27;3.90;;;2.60;;
23179;SDS011;11758;45.756;11.432;2023-03-16T10:28:56;2.20;;;2.10;;
23179;SDS011;11758;45.756;11.432;2023-03-16T10:31:25;2.55;;;2.42;;
23179;SDS011;11758;45.756;11.432;2023-03-16T10:33:53;2.45;;;2.22;;
23179;SDS011;11758;45.756;11.432;2023-03-16T10:36:32;3.55;;;2.05;;
23179;SDS011;11758;45.756;11.432;2023-03-16T10:39:03;6.95;;;3.60;;
23179;SDS011;11758;45.756;11.432;2023-03-16T10:41:30;4.35;;;2.83;;
23179;SDS011;11758;45.756;11.432;2023-03-16T10:46:24;8.85;;;2.63;;
23179;SDS011;11758;45.756;11.432;2023-03-16T10:48:52;4.63;;;2.85;;
23179;SDS011;11758;45.756;11.432;2023-03-16T10:51:20;6.15;;;3.05;;
23179;SDS011;11758;45.756;11.432;2023-03-16T10:53:56;4.88;;;2.42;;
23179;SDS011;11758;45.756;11.432;2023-03-16T10:56:30;2.50;;;2.30;;
23179;SDS011;11758;45.756;11.432;2023-03-16T10:58:57;4.22;;;2.38;;
23179;SDS011;11758;45.756;11.432;2023-03-16T11:01:25;2.90;;;2.70;;
23179;SDS011;11758;45.756;11.432;2023-03-16T11:03:52;5.50;;;2.70;;
23179;SDS011;11758;45.756;11.432;2023-03-16T11:06:21;2.58;;;2.38;;
23179;SDS011;11758;45.756;11.432;2023-03-16T11:08:48;2.42;;;2.33;;
23179;SDS011;11758;45.756;11.432;2023-03-16T11:11:17;4.97;;;3.67;;
23179;SDS011;11758;45.756;11.432;2023-03-16T11:13:46;6.47;;;2.95;;
23179;SDS011;11758;45.756;11.432;2023-03-16T11:18:42;3.65;;;2.95;;
23179;SDS011;11758;45.756;11.432;2023-03-16T11:21:12;3.33;;;2.80;;
23179;SDS011;11758;45.756;11.432;2023-03-16T11:23:45;2.70;;;2.50;;
23179;SDS011;11758;45.756;11.432;2023-03-16T11:26:35;3.25;;;2.40;;
23179;SDS011;11758;45.756;11.432;2023-03-16T11:29:21;2.45;;;2.25;;
23179;SDS011;11758;45.756;11.432;2023-03-16T11:31:50;2.88;;;2.60;;
23179;SDS011;11758;45.756;11.432;2023-03-16T11:34:18;2.58;;;2.22;;
23179;SDS011;11758;45.756;11.432;2023-03-16T11:36:49;5.30;;;2.58;;
23179;SDS011;11758;45.756;11.432;2023-03-16T11:41:57;3.28;;;2.90;;
23179;SDS011;11758;45.756;11.432;2023-03-16T11:52:31;2.03;;;1.92;;
23179;SDS011;11758;45.756;11.432;2023-03-16T12:05:56;3.95;;;2.47;;
23179;SDS011;11758;45.756;11.432;2023-03-16T12:10:47;2.40;;;2.22;;
23179;SDS011;11758;45.756;11.432;2023-03-16T12:15:47;2.53;;;2.05;;
23179;SDS011;11758;45.756;11.432;2023-03-16T12:18:22;3.90;;;2.05;;
23179;SDS011;11758;45.756;11.432;2023-03-16T12:20:54;1.90;;;1.85;;
23179;SDS011;11758;45.756;11.432;2023-03-16T12:23:24;2.60;;;2.50;;
23179;SDS011;11758;45.756;11.432;2023-03-16T12:25:53;2.53;;;2.22;;
23179;SDS011;11758;45.756;11.432;2023-03-16T12:28:22;2.35;;;1.98;;
23179;SDS011;11758;45.756;11.432;2023-03-16T12:30:54;2.15;;;2.03;;
23179;SDS011;11758;45.756;11.432;2023-03-16T12:33:33;2.15;;;2.00;;
23179;SDS011;11758;45.756;11.432;2023-03-16T12:36:02;2.22;;;2.13;;
23179;SDS011;11758;45.756;11.432;2023-03-16T12:39:22;2.25;;;2.15;;
23179;SDS011;11758;45.756;11.432;2023-03-16T12:44:06;2.15;;;2.05;;
23179;SDS011;11758;45.756;11.432;2023-03-16T12:49:10;3.08;;;2.08;;
23179;SDS011;11758;45.756;11.432;2023-03-16T12:51:41;2.83;;;2.70;;
23179;SDS011;11758;45.756;11.432;2023-03-16T12:54:20;3.33;;;1.83;;
23179;SDS011;11758;45.756;11.432;2023-03-16T12:56:48;4.28;;;2.13;;
23179;SDS011;11758;45.756;11.432;2023-03-16T12:59:19;2.42;;;2.20;;
23179;SDS011;11758;45.756;11.432;2023-03-16T13:01:52;2.75;;;2.45;;
23179;SDS011;11758;45.756;11.432;2023-03-16T13:04:28;2.35;;;2.20;;
23179;SDS011;11758;45.756;11.432;2023-03-16T13:07:02;4.22;;;2.28;;
23179;SDS011;11758;45.756;11.432;2023-03-16T13:09:29;2.17;;;2.00;;
23179;SDS011;11758;45.756;11.432;2023-03-16T13:11:59;3.17;;;2.30;;
23179;SDS011;11758;45.756;11.432;2023-03-16T13:14:38;2.60;;;2.40;;
23179;SDS011;11758;45.756;11.432;2023-03-16T13:19:41;2.50;;;2.40;;
23179;SDS011;11758;45.756;11.432;2023-03-16T13:24:51;2.70;;;2.50;;
23179;SDS011;11758;45.756;11.432;2023-03-16T13:27:19;2.60;;;2.42;;
23179;SDS011;11758;45.756;11.432;2023-03-16T13:30:00;3.08;;;2.60;;
23179;SDS011;11758;45.756;11.432;2023-03-16T13:32:30;3.80;;;2.63;;
23179;SDS011;11758;45.756;11.432;2023-03-16T13:34:58;4.32;;;2.50;;
23179;SDS011;11758;45.756;11.432;2023-03-16T13:37:26;3.85;;;2.60;;
23179;SDS011;11758;45.756;11.432;2023-03-16T13:39:53;2.70;;;2.58;;
23179;SDS011;11758;45.756;11.432;2023-03-16T13:42:21;4.63;;;2.50;;
23179;SDS011;11758;45.756;11.432;2023-03-16T13:44:50;2.63;;;2.53;;
23179;SDS011;11758;45.756;11.432;2023-03-16T13:47:17;2.60;;;2.50;;
23179;SDS011;11758;45.756;11.432;2023-03-16T13:52:18;4.07;;;2.83;;
23179;SDS011;11758;45.756;11.432;2023-03-16T13:54:47;4.90;;;3.28;;
23179;SDS011;11758;45.756;11.432;2023-03-16T13:57:13;3.08;;;2.88;;
23179;SDS011;11758;45.756;11.432;2023-03-16T13:59:41;2.95;;;2.63;;
23179;SDS011;11758;45.756;11.432;2023-03-16T14:02:10;2.97;;;2.78;;
23179;SDS011;11758;45.756;11.432;2023-03-16T14:04:41;3.00;;;2.80;;
23179;SDS011;11758;45.756;11.432;2023-03-16T14:07:12;2.95;;;2.75;;
23179;SDS011;11758;45.756;11.432;2023-03-16T14:09:40;4.88;;;3.25;;
23179;SDS011;11758;45.756;11.432;2023-03-16T14:12:17;3.00;;;2.80;;
23179;SDS011;11758;45.756;11.432;2023-03-16T14:14:48;3.47;;;3.17;;
23179;SDS011;11758;45.756;11.432;2023-03-16T14:17:16;3.38;;;3.13;;
23179;SDS011;11758;45.756;11.432;2023-03-16T14:19:47;3.17;;;2.95;;
23179;SDS011;11758;45.756;11.432;2023-03-16T14:22:18;3.42;;;3.10;;
23179;SDS011;11758;45.756;11.432;2023-03-16T14:24:50;3.58;;;3.20;;
23179;SDS011;11758;45.756;11.432;2023-03-16T14:29:44;5.15;;;3.05;;
23179;SDS011;11758;45.756;11.432;2023-03-16T14:32:27;3.08;;;2.78;;
23179;SDS011;11758;45.756;11.432;2023-03-16T14:35:13;4.88;;;3.20;;
23179;SDS011;11758;45.756;11.432;2023-03-16T14:37:40;6.82;;;2.97;;
23179;SDS011;11758;45.756;11.432;2023-03-16T14:40:07;3.38;;;3.10;;
23179;SDS011;11758;45.756;11.432;2023-03-16T14:42:34;8.05;;;5.35;;
23179;SDS011;11758;45.756;11.432;2023-03-16T14:45:01;4.57;;;3.80;;
23179;SDS011;11758;45.756;11.432;2023-03-16T14:47:30;9.00;;;4.60;;
23179;SDS011;11758;45.756;11.432;2023-03-16T14:50:00;5.10;;;3.83;;
23179;SDS011;11758;45.756;11.432;2023-03-16T14:52:29;4.15;;;3.60;;
23179;SDS011;11758;45.756;11.432;2023-03-16T14:54:57;4.18;;;3.67;;
23179;SDS011;11758;45.756;11.432;2023-03-16T14:57:23;3.72;;;3.53;;
23179;SDS011;11758;45.756;11.432;2023-03-16T14:59:50;8.00;;;5.20;;
23179;SDS011;11758;45.756;11.432;2023-03-16T15:02:18;8.30;;;3.80;;
23179;SDS011;11758;45.756;11.432;2023-03-16T15:04:46;3.22;;;2.95;;
23179;SDS011;11758;45.756;11.432;2023-03-16T15:09:49;4.95;;;3.55;;
23179;SDS011;11758;45.756;11.432;2023-03-16T15:12:16;4.32;;;3.03;;
23179;SDS011;11758;45.756;11.432;2023-03-16T15:14:43;5.13;;;3.30;;
23179;SDS011;11758;45.756;11.432;2023-03-16T15:17:28;4.78;;;3.13;;
23179;SDS011;11758;45.756;11.432;2023-03-16T15:19:55;3.45;;;3.15;;
23179;SDS011;11758;45.756;11.432;2023-03-16T15:22:32;5.35;;;3.47;;
23179;SDS011;11758;45.756;11.432;2023-03-16T15:24:58;7.95;;;3.97;;
23179;SDS011;11758;45.756;11.432;2023-03-16T15:27:31;6.65;;;3.72;;
23179;SDS011;11758;45.756;11.432;2023-03-16T15:29:59;7.53;;;3.63;;
23179;SDS011;11758;45.756;11.432;2023-03-16T15:32:26;4.40;;;4.00;;
23179;SDS011;11758;45.756;11.432;2023-03-16T15:34:52;3.65;;;3.20;;
23179;SDS011;11758;45.756;11.432;2023-03-16T15:37:19;5.53;;;3.45;;
23179;SDS011;11758;45.756;11.432;2023-03-16T15:39:48;6.70;;;3.42;;
23179;SDS011;11758;45.756;11.432;2023-03-16T15:42:15;3.72;;;3.53;;
23179;SDS011;11758;45.756;11.432;2023-03-16T15:44:43;4.40;;;3.30;;
23179;SDS011;11758;45.756;11.432;2023-03-16T15:47:10;4.68;;;3.67;;
23179;SDS011;11758;45.756;11.432;2023-03-16T15:49:36;4.68;;;3.67;;
23179;SDS011;11758;45.756;11.432;2023-03-16T15:52:05;3.90;;;3.58;;
23179;SDS011;11758;45.756;11.432;2023-03-16T15:54:35;8.55;;;3.58;;
23179;SDS011;11758;45.756;11.432;2023-03-16T15:57:02;3.80;;;3.50;;